Taylor Springs, Illinois
Current Conditions -  °F | °C
As of 3:35 PM on Thursday 23 Oct 2014 (Local Time) from K3LF Reporting Station
Clear Clear  
Wind Chill: 60°   Ceiling: Unl
Heat Index: 60°   Visibility: 10mi
Dew Point: 41°   Wind: 9mph
Humidity: 48%   Direction: 170°S
Pressure: 30.11"   Gusts: NA
Location:  39.13°N, 89.49°W
Report Text: K3LF 232035Z AUTO 17008KT 10SM CLR 16/05 A3011 RMK AO2 T01570048
Loading
Personal Weather Stations






























Interactive Weather Map
Tropical Storm Tracking
New forecast layout! Learn more

10-Day Weather Forecast

Advertisements
Track Severe Weather on mobile